Time;durP1;ratioP1;P1;durP2;ratioP2;P2;SDS_P1;SDS_P2;PMS_P1;PMS_P2;Temp;Humidity;BMP_temperature;BMP_pressure;BME280_temperature;BME280_humidity;BME280_pressure;Samples;Min_cycle;Max_cycle;Signal;HPM_P1;HPM_P2
2023/01/22 00:01:58;;;;;;;6.90;5.43;;;0.60;99.90;;;;;;5049913;28;20218;-83
2023/01/22 00:04:25;;;;;;;6.13;5.03;;;0.60;99.90;;;;;;5063933;28;20226;-84
2023/01/22 00:06:52;;;;;;;8.20;4.90;;;0.60;99.90;;;;;;5068468;28;20315;-83
2023/01/22 00:09:21;;;;;;;6.70;5.00;;;0.70;99.90;;;;;;5070839;28;20764;-83
2023/01/22 00:11:48;;;;;;;5.83;4.53;;;0.70;99.90;;;;;;5056682;28;20256;-85
2023/01/22 00:14:15;;;;;;;8.27;4.90;;;0.70;99.90;;;;;;5065969;28;20306;-83
2023/01/22 00:16:41;;;;;;;6.37;4.83;;;0.60;99.90;;;;;;5050579;28;20338;-83
2023/01/22 00:19:09;;;;;;;6.03;4.57;;;0.70;99.90;;;;;;5054123;28;20304;-82
2023/01/22 00:21:36;;;;;;;7.60;4.83;;;0.60;99.90;;;;;;5068452;28;20223;-83
2023/01/22 00:24:03;;;;;;;6.80;4.30;;;0.70;99.90;;;;;;5055079;28;20284;-83
2023/01/22 00:26:31;;;;;;;7.13;4.40;;;0.70;99.90;;;;;;5067496;28;20575;-83
2023/01/22 00:28:58;;;;;;;6.33;4.67;;;0.70;99.90;;;;;;5053175;28;20242;-84
2023/01/22 00:31:25;;;;;;;5.47;4.27;;;0.60;99.90;;;;;;5050005;28;20213;-83
2023/01/22 00:33:52;;;;;;;4.70;4.30;;;0.60;99.90;;;;;;5062512;28;20229;-83
2023/01/22 00:36:20;;;;;;;5.03;4.17;;;0.60;99.90;;;;;;5051598;28;20230;-83
2023/01/22 00:38:48;;;;;;;5.00;4.50;;;0.60;99.90;;;;;;5052028;28;20222;-83
2023/01/22 00:41:16;;;;;;;5.70;4.50;;;0.60;99.90;;;;;;5054545;28;20992;-84
2023/01/22 00:43:44;;;;;;;6.50;4.50;;;0.60;99.90;;;;;;5067545;28;20227;-84
2023/01/22 00:46:13;;;;;;;5.67;4.37;;;0.60;99.90;;;;;;5055599;28;20309;-83
2023/01/22 00:48:40;;;;;;;5.80;3.97;;;0.60;99.90;;;;;;5055215;28;20223;-83
2023/01/22 00:51:09;;;;;;;6.43;4.90;;;0.60;99.90;;;;;;5061276;28;20242;-83
2023/01/22 00:53:37;;;;;;;5.57;4.50;;;0.60;99.90;;;;;;5056946;28;20227;-82
2023/01/22 00:56:04;;;;;;;5.00;4.30;;;0.60;99.90;;;;;;5049418;28;20280;-84
2023/01/22 00:58:31;;;;;;;6.50;4.37;;;0.60;99.90;;;;;;5051026;28;20243;-83
2023/01/22 01:01:01;;;;;;;5.43;4.20;;;0.60;99.90;;;;;;5053492;28;20828;-82
2023/01/22 01:03:32;;;;;;;7.43;4.60;;;0.60;99.90;;;;;;5052314;28;20663;-83
2023/01/22 01:06:01;;;;;;;5.00;4.13;;;0.60;99.90;;;;;;5048497;28;20265;-82
2023/01/22 01:08:30;;;;;;;4.73;4.23;;;0.60;99.90;;;;;;5052812;28;20227;-82
2023/01/22 01:10:58;;;;;;;5.43;4.33;;;0.60;99.90;;;;;;5050224;28;20274;-81
2023/01/22 01:13:25;;;;;;;4.30;3.90;;;0.50;99.90;;;;;;5049557;28;20284;-83
2023/01/22 01:16:01;;;;;;;5.90;4.40;;;0.60;99.90;;;;;;5053906;28;20726;-83
2023/01/22 01:18:28;;;;;;;4.93;4.43;;;0.60;99.90;;;;;;5068038;28;20225;-82
2023/01/22 01:20:59;;;;;;;5.33;4.30;;;0.70;99.90;;;;;;5058440;28;20263;-82
2023/01/22 01:23:27;;;;;;;5.50;3.80;;;0.60;99.90;;;;;;5070828;28;20281;-82
2023/01/22 01:25:54;;;;;;;5.27;4.43;;;0.60;99.90;;;;;;5071694;28;20780;-83
2023/01/22 01:28:22;;;;;;;5.10;4.30;;;0.60;99.90;;;;;;5054983;28;20752;-82
2023/01/22 01:30:49;;;;;;;4.80;3.93;;;0.60;99.90;;;;;;5054260;28;20294;-82
2023/01/22 01:33:17;;;;;;;5.97;4.37;;;0.60;99.90;;;;;;5053619;28;20913;-82
2023/01/22 01:35:43;;;;;;;6.07;4.13;;;0.60;99.90;;;;;;5054704;28;20243;-83
2023/01/22 01:38:12;;;;;;;4.73;3.67;;;0.60;99.90;;;;;;5053808;28;20259;-83
2023/01/22 01:40:42;;;;;;;6.80;4.70;;;0.60;99.90;;;;;;5055292;28;20376;-82
2023/01/22 01:43:14;;;;;;;6.17;3.63;;;0.60;99.90;;;;;;5055259;28;20921;-83
2023/01/22 01:45:41;;;;;;;8.07;4.10;;;0.70;99.90;;;;;;5071943;28;20222;-83
2023/01/22 01:48:15;;;;;;;6.27;4.43;;;0.70;99.90;;;;;;5053412;28;20225;-83
2023/01/22 01:50:47;;;;;;;5.87;4.60;;;0.70;99.90;;;;;;5054083;28;20298;-82
2023/01/22 01:53:14;;;;;;;5.43;3.60;;;0.70;99.90;;;;;;5067077;28;20595;-82
2023/01/22 01:55:41;;;;;;;5.33;3.90;;;0.70;99.90;;;;;;5050681;28;20265;-82
2023/01/22 01:58:17;;;;;;;5.87;3.70;;;0.70;99.90;;;;;;5058888;28;20243;-83
2023/01/22 02:00:44;;;;;;;5.87;4.10;;;0.70;99.90;;;;;;5068254;28;20214;-83
2023/01/22 02:03:12;;;;;;;5.47;4.13;;;0.70;99.90;;;;;;5049406;28;20220;-82
2023/01/22 02:05:40;;;;;;;4.87;3.80;;;0.70;99.90;;;;;;5051218;28;20219;-81
2023/01/22 02:08:09;;;;;;;5.23;4.10;;;0.70;99.90;;;;;;5066726;28;20226;-82
2023/01/22 02:10:37;;;;;;;5.63;4.20;;;0.60;99.90;;;;;;5067315;28;20232;-82
2023/01/22 02:13:10;;;;;;;7.87;5.03;;;0.60;99.90;;;;;;5052472;28;20253;-81
2023/01/22 02:15:39;;;;;;;6.37;4.30;;;0.60;99.90;;;;;;5051912;28;20230;-82
2023/01/22 02:18:06;;;;;;;6.70;4.53;;;0.60;99.90;;;;;;5050406;28;20225;-82
2023/01/22 02:20:39;;;;;;;6.20;4.37;;;0.70;99.90;;;;;;5042522;28;20223;-82
2023/01/22 02:23:08;;;;;;;6.30;4.13;;;0.70;99.90;;;;;;5046733;28;20222;-82
2023/01/22 02:25:35;;;;;;;6.03;4.90;;;0.70;99.90;;;;;;5056039;28;20235;-82
2023/01/22 02:28:02;;;;;;;5.07;4.30;;;0.70;99.90;;;;;;5052751;28;20321;-81
2023/01/22 02:30:29;;;;;;;5.30;4.10;;;0.70;99.90;;;;;;5066957;28;20223;-82
2023/01/22 02:32:56;;;;;;;5.70;4.43;;;0.70;99.90;;;;;;5052753;28;20238;-82
2023/01/22 02:35:26;;;;;;;6.37;5.03;;;0.70;99.90;;;;;;5051060;28;20258;-82
2023/01/22 02:37:54;;;;;;;6.30;4.90;;;0.70;99.90;;;;;;5050642;28;20241;-82
2023/01/22 02:40:21;;;;;;;5.63;4.50;;;0.70;99.90;;;;;;5058930;28;20273;-82
2023/01/22 02:42:48;;;;;;;5.43;4.50;;;0.70;99.90;;;;;;5058103;28;20561;-82
2023/01/22 02:45:15;;;;;;;6.93;4.57;;;0.70;99.90;;;;;;5057419;28;20753;-82
2023/01/22 02:47:42;;;;;;;8.33;4.87;;;0.70;99.90;;;;;;5058161;28;20254;-82
2023/01/22 02:50:10;;;;;;;7.17;4.33;;;0.70;99.90;;;;;;5049564;28;20222;-82
2023/01/22 02:52:37;;;;;;;6.03;4.47;;;0.70;99.90;;;;;;5061861;28;20219;-83
2023/01/22 02:55:07;;;;;;;6.53;5.30;;;0.70;99.90;;;;;;5071923;28;20235;-83
2023/01/22 02:57:33;;;;;;;6.87;4.87;;;0.70;99.90;;;;;;5059551;28;20246;-83
2023/01/22 03:00:00;;;;;;;6.53;4.90;;;0.70;99.90;;;;;;5056799;28;20211;-83
2023/01/22 03:02:32;;;;;;;5.80;4.33;;;0.70;99.90;;;;;;5056261;28;20693;-83
2023/01/22 03:05:03;;;;;;;7.30;5.20;;;0.70;99.90;;;;;;5063862;28;20258;-83
2023/01/22 03:07:41;;;;;;;6.70;4.70;;;0.80;99.90;;;;;;5074194;28;20454;-82
2023/01/22 03:10:13;;;;;;;6.13;4.87;;;0.80;99.90;;;;;;5059247;28;20244;-82
2023/01/22 03:23:39;;;;;;;6.87;4.97;;;0.80;99.90;;;;;;5059722;28;20248;-82
2023/01/22 03:26:08;;;;;;;8.13;5.53;;;0.80;99.90;;;;;;5049732;28;20252;-81
2023/01/22 03:28:36;;;;;;;7.60;5.07;;;0.70;99.90;;;;;;5046188;28;20233;-81
2023/01/22 03:31:03;;;;;;;9.23;5.30;;;0.70;99.90;;;;;;5054356;28;20227;-81
2023/01/22 03:33:32;;;;;;;6.70;4.67;;;0.70;99.90;;;;;;5058331;28;20223;-82
2023/01/22 03:36:00;;;;;;;8.23;4.70;;;0.80;99.90;;;;;;5053587;28;20444;-83
2023/01/22 03:38:27;;;;;;;5.83;4.80;;;0.80;99.90;;;;;;5067809;28;20223;-82
2023/01/22 03:41:01;;;;;;;6.87;4.73;;;0.80;99.90;;;;;;5055529;28;20235;-82
2023/01/22 03:43:29;;;;;;;5.83;4.47;;;0.80;99.90;;;;;;5052904;28;20869;-83
2023/01/22 03:46:01;;;;;;;8.47;5.30;;;0.80;99.90;;;;;;5054292;28;20905;-83
2023/01/22 03:48:28;;;;;;;6.40;4.37;;;0.80;99.90;;;;;;5070985;28;20930;-83
2023/01/22 03:50:55;;;;;;;6.37;4.57;;;0.70;99.90;;;;;;5053418;28;20215;-85
2023/01/22 03:53:22;;;;;;;6.77;5.30;;;0.80;99.90;;;;;;5052483;28;20239;-84
2023/01/22 03:55:57;;;;;;;10.03;5.27;;;0.80;99.90;;;;;;5052669;28;20229;-85
2023/01/22 03:58:24;;;;;;;16.43;14.73;;;0.70;99.90;;;;;;5052374;28;20237;-85
2023/01/22 04:00:56;;;;;;;8.37;5.50;;;0.70;99.90;;;;;;5052778;28;20760;-86
2023/01/22 04:03:24;;;;;;;8.83;4.97;;;0.70;99.90;;;;;;5068099;28;20304;-83
2023/01/22 04:05:51;;;;;;;6.47;4.80;;;0.70;99.90;;;;;;5052045;28;20284;-85
2023/01/22 04:08:19;;;;;;;7.37;5.50;;;0.70;99.90;;;;;;5055093;28;20249;-84
2023/01/22 04:10:46;;;;;;;8.20;5.10;;;0.70;99.90;;;;;;5048950;28;20273;-87
2023/01/22 04:13:13;;;;;;;7.37;5.47;;;0.70;99.90;;;;;;5055608;28;20234;-84
2023/01/22 04:15:44;;;;;;;8.33;5.43;;;0.70;99.90;;;;;;5047991;28;20220;-83
2023/01/22 04:18:23;;;;;;;7.43;5.10;;;0.70;99.90;;;;;;5049505;28;20228;-84
2023/01/22 04:21:12;;;;;;;6.60;4.60;;;0.70;99.90;;;;;;5040760;28;20215;-84
2023/01/22 04:23:43;;;;;;;8.90;5.73;;;0.70;99.90;;;;;;5053334;28;20235;-85
2023/01/22 04:26:10;;;;;;;9.70;6.10;;;0.70;99.90;;;;;;5051228;28;20232;-83
2023/01/22 04:28:37;;;;;;;9.27;5.20;;;0.70;99.90;;;;;;5046404;28;20350;-83
2023/01/22 04:31:04;;;;;;;7.37;5.60;;;0.70;99.90;;;;;;5054434;28;20245;-84
2023/01/22 04:33:57;;;;;;;5.53;4.93;;;0.70;99.90;;;;;;5085880;28;20248;-82
2023/01/22 04:36:27;;;;;;;4.90;4.37;;;0.70;99.90;;;;;;5069232;28;20475;-84
2023/01/22 04:38:54;;;;;;;7.47;4.80;;;0.70;99.90;;;;;;5069545;28;20236;-82
2023/01/22 04:41:21;;;;;;;7.27;4.80;;;0.70;99.90;;;;;;5061645;28;20239;-83
2023/01/22 04:43:48;;;;;;;5.60;4.03;;;0.70;99.90;;;;;;5048251;28;20247;-82
2023/01/22 04:46:15;;;;;;;5.10;4.60;;;0.70;99.90;;;;;;5048025;28;20992;-83
2023/01/22 04:48:42;;;;;;;6.90;4.37;;;0.70;99.90;;;;;;5055229;28;20230;-83
2023/01/22 04:51:12;;;;;;;6.40;4.77;;;0.70;99.90;;;;;;5047855;28;20307;-83
2023/01/22 04:53:39;;;;;;;7.93;4.80;;;0.70;99.90;;;;;;5066132;28;20230;-83
2023/01/22 04:56:07;;;;;;;5.33;4.43;;;0.70;99.90;;;;;;5041228;28;20628;-81
2023/01/22 04:58:34;;;;;;;6.30;4.83;;;0.60;99.90;;;;;;5048650;28;20298;-82
2023/01/22 05:01:01;;;;;;;7.17;4.73;;;0.70;99.90;;;;;;5046826;28;20222;-82
2023/01/22 05:03:29;;;;;;;6.83;4.53;;;0.70;99.90;;;;;;5046158;28;20227;-82
2023/01/22 05:05:56;;;;;;;7.00;3.93;;;0.70;99.90;;;;;;5066637;28;20930;-81
2023/01/22 05:08:25;;;;;;;6.97;4.67;;;0.70;99.90;;;;;;5051830;28;20249;-83
2023/01/22 05:10:52;;;;;;;7.50;4.53;;;0.70;99.90;;;;;;5048451;28;20215;-85
2023/01/22 05:13:28;;;;;;;8.73;4.87;;;0.70;99.90;;;;;;5043501;28;20242;-83
2023/01/22 05:15:55;;;;;;;8.53;4.60;;;0.70;99.90;;;;;;5071971;28;20224;-83
2023/01/22 05:18:24;;;;;;;6.30;4.70;;;0.70;99.90;;;;;;5049464;28;20752;-80
2023/01/22 05:20:52;;;;;;;6.97;5.70;;;0.80;99.90;;;;;;5038766;28;20385;-79
2023/01/22 05:23:20;;;;;;;7.43;4.60;;;0.80;99.90;;;;;;5059087;28;20266;-80
2023/01/22 05:25:49;;;;;;;9.37;4.60;;;0.80;99.90;;;;;;5045049;28;20234;-79
2023/01/22 05:28:20;;;;;;;6.33;4.53;;;0.80;99.90;;;;;;5046244;28;20929;-80
2023/01/22 05:31:10;;;;;;;5.37;4.27;;;0.80;99.90;;;;;;5061091;28;20996;-80
2023/01/22 05:33:49;;;;;;;6.27;4.70;;;0.80;99.90;;;;;;5045267;28;20221;-80
2023/01/22 05:36:16;;;;;;;9.13;4.30;;;0.80;99.90;;;;;;5041051;28;20311;-79
2023/01/22 05:38:45;;;;;;;6.70;4.43;;;0.90;99.90;;;;;;5060086;28;20246;-79
2023/01/22 05:41:13;;;;;;;6.60;4.63;;;0.90;99.90;;;;;;5045604;28;20789;-79
2023/01/22 05:43:41;;;;;;;5.90;4.60;;;0.80;99.90;;;;;;5045658;28;20308;-80
2023/01/22 05:46:12;;;;;;;5.53;4.13;;;0.90;99.90;;;;;;5045065;28;20959;-79
2023/01/22 05:48:58;;;;;;;5.77;4.50;;;0.90;99.90;;;;;;5055152;28;20226;-77
2023/01/22 05:51:27;;;;;;;6.30;4.87;;;0.90;99.90;;;;;;5040206;28;20897;-77
2023/01/22 05:53:54;;;;;;;7.00;4.33;;;0.90;99.90;;;;;;5048686;28;20305;-77
2023/01/22 05:56:22;;;;;;;7.43;4.50;;;0.90;99.90;;;;;;5044279;28;20232;-77
2023/01/22 05:58:49;;;;;;;7.23;4.43;;;0.90;99.90;;;;;;5044904;28;20576;-77
2023/01/22 06:01:16;;;;;;;7.23;4.87;;;0.90;99.90;;;;;;5044526;28;20265;-77
2023/01/22 06:03:47;;;;;;;6.50;4.67;;;0.80;99.90;;;;;;5049822;28;20229;-77
2023/01/22 06:06:18;;;;;;;7.67;4.47;;;0.80;99.90;;;;;;5043987;28;20227;-78
2023/01/22 06:08:46;;;;;;;11.40;5.83;;;0.80;99.90;;;;;;5054195;28;20222;-77
2023/01/22 06:11:14;;;;;;;12.93;8.07;;;0.80;99.90;;;;;;5024714;28;20728;-77
2023/01/22 06:13:46;;;;;;;7.97;4.93;;;0.90;99.90;;;;;;5057233;28;20890;-77
2023/01/22 06:16:18;;;;;;;10.13;5.80;;;0.90;99.90;;;;;;5049314;28;20253;-77
2023/01/22 06:19:14;;;;;;;9.77;6.23;;;0.90;99.90;;;;;;5041285;28;20445;-77
2023/01/22 06:21:50;;;;;;;28.57;16.83;;;0.90;99.90;;;;;;5044902;28;20230;-77
2023/01/22 06:24:17;;;;;;;17.10;11.13;;;1.00;99.90;;;;;;5044663;28;20235;-77
2023/01/22 06:26:44;;;;;;;28.50;15.70;;;1.00;99.90;;;;;;5060691;28;20313;-77
2023/01/22 06:29:15;;;;;;;9.83;5.30;;;1.00;99.90;;;;;;5055115;28;20277;-77
2023/01/22 06:31:42;;;;;;;36.23;17.67;;;1.00;99.90;;;;;;5054741;28;20240;-77
2023/01/22 06:34:09;;;;;;;10.73;7.13;;;1.00;99.90;;;;;;5044200;28;20238;-77
2023/01/22 06:36:36;;;;;;;7.87;5.93;;;1.00;99.90;;;;;;5042385;28;20746;-78
2023/01/22 06:39:04;;;;;;;8.20;4.77;;;1.00;99.90;;;;;;5044315;28;20314;-77
2023/01/22 06:41:49;;;;;;;8.77;5.47;;;1.10;99.90;;;;;;5058501;28;21007;-77
2023/01/22 06:44:21;;;;;;;7.27;4.57;;;1.10;99.90;;;;;;5045051;28;20254;-84
2023/01/22 06:46:49;;;;;;;7.43;4.80;;;1.10;99.90;;;;;;5046335;28;20234;-84
2023/01/22 06:49:23;;;;;;;10.70;5.77;;;1.10;99.90;;;;;;5046327;28;20262;-84
2023/01/22 06:51:50;;;;;;;7.17;4.87;;;1.00;99.90;;;;;;5046007;28;20231;-84
2023/01/22 06:54:17;;;;;;;10.30;5.20;;;1.00;99.90;;;;;;5041981;28;20363;-84
2023/01/22 06:56:44;;;;;;;11.50;4.73;;;1.10;99.90;;;;;;5042739;28;20239;-83
2023/01/22 06:59:13;;;;;;;7.97;4.17;;;1.10;99.90;;;;;;5045437;28;20224;-83
2023/01/22 07:01:41;;;;;;;9.73;5.13;;;1.10;99.90;;;;;;5062329;28;20296;-83
2023/01/22 07:04:09;;;;;;;8.23;5.00;;;1.10;99.90;;;;;;5045218;28;20623;-83
2023/01/22 07:06:36;;;;;;;6.20;4.13;;;1.10;99.90;;;;;;5064519;28;20231;-83
2023/01/22 07:09:03;;;;;;;9.63;5.30;;;1.10;99.90;;;;;;5067705;28;20306;-84
2023/01/22 07:11:29;;;;;;;9.10;5.57;;;1.10;99.90;;;;;;5059192;28;20689;-83
2023/01/22 07:13:56;;;;;;;8.43;5.30;;;1.10;99.90;;;;;;5042878;28;20253;-82
2023/01/22 07:16:23;;;;;;;8.27;4.97;;;1.10;99.90;;;;;;5063302;28;20338;-82
2023/01/22 07:18:51;;;;;;;9.23;4.90;;;1.10;99.90;;;;;;5062276;28;20218;-82
2023/01/22 07:21:17;;;;;;;9.63;5.90;;;1.20;99.90;;;;;;5056818;28;20224;-82
2023/01/22 07:23:44;;;;;;;8.93;4.87;;;1.20;99.90;;;;;;5065178;28;20262;-82
2023/01/22 07:26:11;;;;;;;10.03;4.90;;;1.20;99.90;;;;;;5066446;28;20226;-81
2023/01/22 07:28:37;;;;;;;10.33;5.40;;;1.20;99.90;;;;;;5065810;28;20400;-81
2023/01/22 07:31:08;;;;;;;7.67;4.93;;;1.20;99.90;;;;;;5061241;28;20231;-83
2023/01/22 07:33:40;;;;;;;11.57;7.33;;;1.20;99.90;;;;;;5059596;28;20220;-84
2023/01/22 07:36:08;;;;;;;7.97;5.20;;;1.20;99.90;;;;;;5063705;28;20311;-83
2023/01/22 07:38:37;;;;;;;8.70;5.07;;;1.20;99.90;;;;;;5066695;28;20225;-85
2023/01/22 07:41:06;;;;;;;10.67;4.93;;;1.20;99.90;;;;;;5056719;28;20215;-85
2023/01/22 07:43:33;;;;;;;8.27;5.00;;;1.30;99.90;;;;;;5054118;28;20233;-84
2023/01/22 07:46:01;;;;;;;10.17;5.17;;;1.30;99.90;;;;;;5066925;28;20223;-83
2023/01/22 07:48:28;;;;;;;10.47;4.87;;;1.30;99.90;;;;;;5048798;28;20234;-86
2023/01/22 07:51:01;;;;;;;7.63;4.90;;;1.30;99.90;;;;;;5053262;28;20249;-86
2023/01/22 07:53:33;;;;;;;11.07;6.27;;;1.30;99.90;;;;;;5069115;28;20218;-85
2023/01/22 07:56:01;;;;;;;9.90;4.97;;;1.30;99.90;;;;;;5063742;28;20218;-84
2023/01/22 07:58:28;;;;;;;6.73;4.67;;;1.30;99.90;;;;;;5065318;28;20318;-86
2023/01/22 08:00:54;;;;;;;8.77;4.77;;;1.30;99.90;;;;;;5052100;28;20234;-84
2023/01/22 08:03:21;;;;;;;6.27;5.10;;;1.30;99.90;;;;;;5051622;28;20229;-84
2023/01/22 08:05:48;;;;;;;7.63;5.17;;;1.40;99.90;;;;;;5071022;28;20303;-83
2023/01/22 08:08:16;;;;;;;8.37;5.70;;;1.40;99.90;;;;;;5066191;28;20345;-83
2023/01/22 08:10:45;;;;;;;7.10;5.20;;;1.40;99.90;;;;;;5055329;28;20663;-82
2023/01/22 08:13:12;;;;;;;10.50;5.40;;;1.40;99.90;;;;;;5068167;28;20208;-83
2023/01/22 08:15:42;;;;;;;8.47;4.17;;;1.40;99.90;;;;;;5070046;28;20248;-83
2023/01/22 08:18:09;;;;;;;7.43;4.33;;;1.40;99.90;;;;;;5070068;28;20247;-81
2023/01/22 08:20:36;;;;;;;8.80;4.90;;;1.40;99.90;;;;;;5071486;28;20219;-83
2023/01/22 08:23:03;;;;;;;7.43;4.80;;;1.40;99.90;;;;;;5068034;28;20284;-83
2023/01/22 08:25:30;;;;;;;10.07;5.10;;;1.50;99.90;;;;;;5042794;28;20233;-83
2023/01/22 08:28:02;;;;;;;7.07;4.83;;;1.50;99.90;;;;;;5052923;28;20233;-82
2023/01/22 08:30:29;;;;;;;7.13;4.40;;;1.50;99.90;;;;;;5069312;28;20249;-83
2023/01/22 08:32:55;;;;;;;9.90;4.40;;;1.50;99.90;;;;;;5051563;28;20310;-83
2023/01/22 08:35:22;;;;;;;8.53;4.40;;;1.60;99.90;;;;;;5064840;28;20357;-84
2023/01/22 08:37:49;;;;;;;11.37;4.93;;;1.60;99.90;;;;;;5063716;28;20307;-83
2023/01/22 08:40:16;;;;;;;12.93;4.90;;;1.70;99.90;;;;;;5061276;28;20271;-83
2023/01/22 08:42:42;;;;;;;9.00;4.67;;;1.60;99.90;;;;;;5051668;28;20241;-84
2023/01/22 08:45:11;;;;;;;6.17;4.13;;;1.70;99.90;;;;;;5049947;28;20309;-82
2023/01/22 08:47:38;;;;;;;8.97;4.53;;;1.70;99.90;;;;;;5047702;28;20729;-84
2023/01/22 08:50:05;;;;;;;11.20;6.23;;;1.70;99.90;;;;;;5069920;28;20227;-83
2023/01/22 08:52:32;;;;;;;8.53;4.10;;;1.70;99.90;;;;;;5061458;28;20229;-83
2023/01/22 08:54:58;;;;;;;7.70;4.13;;;1.70;99.90;;;;;;5065963;28;20211;-84
2023/01/22 08:57:25;;;;;;;6.63;3.87;;;1.70;99.90;;;;;;5065339;28;20237;-84
2023/01/22 08:59:54;;;;;;;7.50;4.30;;;1.70;99.90;;;;;;5063968;28;20226;-85
2023/01/22 09:02:22;;;;;;;11.20;5.30;;;1.70;99.90;;;;;;5046842;28;20607;-83
2023/01/22 09:04:49;;;;;;;8.17;3.90;;;1.80;99.90;;;;;;5062647;28;20231;-84
2023/01/22 09:07:17;;;;;;;8.43;4.20;;;1.80;99.90;;;;;;5047551;28;20242;-83
2023/01/22 09:09:43;;;;;;;9.87;5.30;;;1.90;99.90;;;;;;5055750;28;20231;-83
2023/01/22 09:12:10;;;;;;;8.97;5.17;;;1.80;99.90;;;;;;5051273;28;20221;-83
2023/01/22 09:14:37;;;;;;;6.90;4.00;;;1.80;99.90;;;;;;5066397;28;20232;-83
2023/01/22 09:17:03;;;;;;;7.77;4.40;;;1.80;99.90;;;;;;5064345;28;20227;-82
2023/01/22 09:19:33;;;;;;;8.90;4.73;;;1.90;99.90;;;;;;5059986;28;20228;-82
2023/01/22 09:22:05;;;;;;;9.27;3.90;;;1.90;99.90;;;;;;5054084;28;20575;-82
2023/01/22 09:24:32;;;;;;;8.80;4.70;;;1.90;99.90;;;;;;5070221;28;20661;-83
2023/01/22 09:26:59;;;;;;;8.33;4.60;;;1.90;99.90;;;;;;5048557;28;20278;-85
2023/01/22 09:29:25;;;;;;;10.63;5.60;;;1.90;99.90;;;;;;5056530;28;20223;-84
2023/01/22 09:31:52;;;;;;;13.77;6.87;;;1.90;99.90;;;;;;5048370;28;20220;-85
2023/01/22 09:34:19;;;;;;;7.33;4.30;;;1.90;99.90;;;;;;5061778;28;20223;-85
2023/01/22 09:36:47;;;;;;;8.23;4.17;;;1.90;99.90;;;;;;5070840;28;20255;-83
2023/01/22 09:39:14;;;;;;;7.20;3.40;;;1.90;99.90;;;;;;5053317;28;20246;-83
2023/01/22 09:41:46;;;;;;;6.83;4.43;;;1.90;99.90;;;;;;5042135;28;20576;-83
2023/01/22 09:44:17;;;;;;;35.40;19.77;;;1.90;99.90;;;;;;5063804;28;20455;-82
2023/01/22 09:46:51;;;;;;;9.07;5.07;;;2.00;99.90;;;;;;5044492;28;20787;-85
2023/01/22 09:49:20;;;;;;;11.03;5.83;;;2.00;99.90;;;;;;5046852;28;20230;-84
2023/01/22 09:51:53;;;;;;;12.80;4.60;;;2.00;99.90;;;;;;5064733;28;20700;-87
2023/01/22 09:54:20;;;;;;;7.53;3.80;;;2.00;99.90;;;;;;5070198;28;20223;-89
2023/01/22 09:56:52;;;;;;;9.10;4.03;;;2.10;99.90;;;;;;5069510;28;20231;-87
2023/01/22 09:59:21;;;;;;;13.53;11.13;;;2.00;99.90;;;;;;5050417;28;20248;-84
2023/01/22 10:01:52;;;;;;;9.60;7.73;;;2.10;99.90;;;;;;5055848;28;20227;-84
2023/01/22 10:04:30;;;;;;;9.07;5.97;;;2.10;99.90;;;;;;5048334;28;20779;-85
2023/01/22 10:07:05;;;;;;;10.40;4.97;;;2.10;99.90;;;;;;5067437;28;20246;-83
2023/01/22 10:09:33;;;;;;;17.13;15.40;;;2.10;99.90;;;;;;5050348;28;20231;-84
2023/01/22 10:12:10;;;;;;;11.43;5.00;;;2.20;99.90;;;;;;5067843;28;20247;-85
2023/01/22 10:14:38;;;;;;;34.50;17.67;;;2.20;99.90;;;;;;5047887;28;20219;-87
2023/01/22 10:17:15;;;;;;;90.57;44.00;;;2.30;99.90;;;;;;5046376;28;20219;-86
2023/01/22 10:19:45;;;;;;;12.43;5.60;;;2.30;99.90;;;;;;5067222;28;20227;-85
2023/01/22 10:22:20;;;;;;;7.97;4.43;;;2.40;99.90;;;;;;5053226;28;20228;-85
2023/01/22 10:24:46;;;;;;;7.97;3.77;;;2.40;99.90;;;;;;5054478;28;20227;-85
2023/01/22 10:27:16;;;;;;;8.97;3.50;;;2.40;99.90;;;;;;5070179;28;20247;-85
2023/01/22 10:29:46;;;;;;;10.10;5.00;;;2.40;99.90;;;;;;5071458;28;20226;-84
2023/01/22 10:32:19;;;;;;;6.90;3.63;;;2.50;99.90;;;;;;5052943;28;20314;-85
2023/01/22 10:34:59;;;;;;;34.90;24.03;;;2.50;99.90;;;;;;5051858;28;20783;-85
2023/01/22 10:37:28;;;;;;;11.47;5.50;;;2.60;99.90;;;;;;5064106;28;20287;-85
2023/01/22 10:39:58;;;;;;;11.97;6.37;;;2.60;99.90;;;;;;5046241;28;20955;-86
2023/01/22 10:42:27;;;;;;;8.43;4.30;;;2.60;99.90;;;;;;5050814;28;20223;-87
2023/01/22 10:45:08;;;;;;;8.70;4.37;;;2.70;99.90;;;;;;5050827;28;20594;-85
2023/01/22 10:47:35;;;;;;;7.77;3.20;;;2.70;99.90;;;;;;5064821;28;20223;-84
2023/01/22 10:50:04;;;;;;;6.90;3.20;;;2.70;99.90;;;;;;5049832;28;20222;-86
2023/01/22 10:52:39;;;;;;;12.33;5.70;;;2.80;99.90;;;;;;5065244;28;20230;-87
2023/01/22 10:55:07;;;;;;;12.73;5.27;;;2.80;99.90;;;;;;5039122;28;21024;-85
2023/01/22 10:57:36;;;;;;;9.07;3.70;;;2.80;99.90;;;;;;5043308;28;21567;-83
2023/01/22 11:00:19;;;;;;;6.70;3.10;;;2.80;99.90;;;;;;5057187;28;20307;-84
2023/01/22 11:02:48;;;;;;;11.13;5.30;;;2.80;99.90;;;;;;5041825;28;20839;-82
2023/01/22 11:05:18;;;;;;;16.00;8.00;;;2.80;99.90;;;;;;5064966;28;20215;-83
2023/01/22 11:07:50;;;;;;;15.87;8.40;;;2.80;99.90;;;;;;5055453;28;20228;-84
2023/01/22 11:10:21;;;;;;;9.13;5.20;;;2.80;99.90;;;;;;5064271;28;20240;-83
2023/01/22 11:12:54;;;;;;;9.63;3.30;;;2.90;99.90;;;;;;5067876;28;20226;-86
2023/01/22 11:15:28;;;;;;;11.37;6.63;;;2.90;99.90;;;;;;5045965;28;20227;-86
2023/01/22 11:17:59;;;;;;;9.33;3.17;;;2.90;99.90;;;;;;5039448;28;20326;-87
2023/01/22 11:20:30;;;;;;;7.27;3.07;;;2.90;99.90;;;;;;5065089;28;20220;-88
2023/01/22 11:23:13;;;;;;;6.73;3.43;;;3.00;99.90;;;;;;5053607;28;20302;-86
2023/01/22 11:25:45;;;;;;;7.73;3.10;;;3.00;99.90;;;;;;5058909;28;20230;-87
2023/01/22 11:28:26;;;;;;;7.97;2.77;;;3.00;99.90;;;;;;5056944;28;20223;-85
2023/01/22 11:31:03;;;;;;;9.37;3.00;;;3.00;99.90;;;;;;5059537;28;20281;-85
2023/01/22 11:33:45;;;;;;;7.83;2.43;;;3.00;99.90;;;;;;5056557;28;20223;-86
2023/01/22 11:36:23;;;;;;;7.73;2.93;;;3.00;99.90;;;;;;5069853;28;20641;-86
2023/01/22 11:38:56;;;;;;;8.43;3.07;;;3.10;99.90;;;;;;5057356;28;20220;-86
2023/01/22 11:41:54;;;;;;;10.67;4.70;;;3.10;99.90;;;;;;5072830;28;20234;-88
2023/01/22 11:44:49;;;;;;;41.00;17.63;;;3.20;99.90;;;;;;5072197;28;20257;-85
2023/01/22 11:47:35;;;;;;;9.10;3.87;;;3.20;99.90;;;;;;5054008;28;20450;-86
2023/01/22 11:50:21;;;;;;;11.90;5.43;;;3.30;99.90;;;;;;5043010;28;20312;-86
2023/01/22 11:52:54;;;;;;;23.87;12.17;;;3.30;99.90;;;;;;5057651;28;20230;-86
2023/01/22 11:55:49;;;;;;;7.97;3.97;;;3.30;99.90;;;;;;5055871;28;20232;-86
2023/01/22 11:58:24;;;;;;;5.97;2.57;;;3.40;99.90;;;;;;5066903;28;20239;-87
2023/01/22 12:01:01;;;;;;;10.63;4.40;;;3.40;99.90;;;;;;5054429;28;20237;-85
2023/01/22 12:03:52;;;;;;;6.70;3.20;;;3.50;99.90;;;;;;5073209;28;20223;-86
2023/01/22 12:06:35;;;;;;;6.27;2.17;;;3.50;99.90;;;;;;5071591;28;20726;-88
2023/01/22 12:09:09;;;;;;;6.53;2.50;;;3.50;99.90;;;;;;5049034;28;20223;-85
2023/01/22 12:11:59;;;;;;;6.43;2.50;;;3.60;99.90;;;;;;5041484;28;20328;-78
2023/01/22 12:14:54;;;;;;;4.87;2.20;;;3.60;99.90;;;;;;5062576;28;20502;-77
2023/01/22 12:17:37;;;;;;;7.57;2.40;;;3.70;99.90;;;;;;5041663;28;20242;-78
2023/01/22 12:20:24;;;;;;;6.53;2.30;;;3.80;99.90;;;;;;5056107;28;20229;-78
2023/01/22 12:22:56;;;;;;;7.43;2.20;;;3.80;99.90;;;;;;5062521;28;20229;-78
2023/01/22 12:25:34;;;;;;;4.73;1.87;;;3.90;99.90;;;;;;5044948;28;20233;-78
2023/01/22 12:28:09;;;;;;;5.47;1.80;;;3.90;99.90;;;;;;5048147;28;20716;-78
2023/01/22 12:30:44;;;;;;;8.60;2.10;;;3.90;99.90;;;;;;5062423;28;20232;-77
2023/01/22 12:33:14;;;;;;;8.57;1.90;;;4.00;99.90;;;;;;5062135;28;20254;-77
2023/01/22 12:35:42;;;;;;;5.13;2.37;;;4.00;99.90;;;;;;5062002;28;20231;-77
2023/01/22 12:38:19;;;;;;;5.27;1.70;;;4.00;99.90;;;;;;5066815;28;20224;-77
2023/01/22 12:41:02;;;;;;;6.93;1.90;;;4.00;99.90;;;;;;5072125;28;20220;-87
2023/01/22 12:43:37;;;;;;;5.93;2.43;;;4.00;99.90;;;;;;5052420;28;20345;-87
2023/01/22 12:46:11;;;;;;;6.10;2.30;;;4.00;99.90;;;;;;5059326;28;20725;-88
2023/01/22 12:48:46;;;;;;;6.43;2.27;;;4.00;99.90;;;;;;5069533;28;20223;-90
2023/01/22 12:51:26;;;;;;;9.93;3.57;;;4.00;99.90;;;;;;5069643;28;20272;-85
2023/01/22 12:53:53;;;;;;;3.67;1.90;;;4.10;99.90;;;;;;5053983;28;20211;-85
2023/01/22 12:56:29;;;;;;;6.67;2.70;;;4.10;99.90;;;;;;5070926;28;20242;-87
2023/01/22 12:58:58;;;;;;;7.67;3.10;;;4.10;99.90;;;;;;5069835;28;20716;-86
2023/01/22 13:01:33;;;;;;;6.13;2.27;;;4.20;99.90;;;;;;5058118;28;20280;-87
2023/01/22 13:04:01;;;;;;;8.30;2.40;;;4.10;99.90;;;;;;5044027;28;20246;-86
2023/01/22 13:06:34;;;;;;;6.93;2.00;;;4.10;99.90;;;;;;5043272;28;20224;-87
2023/01/22 13:09:02;;;;;;;7.10;2.33;;;4.10;99.90;;;;;;5050942;28;20302;-86
2023/01/22 13:11:33;;;;;;;7.90;2.97;;;4.10;99.90;;;;;;5049673;28;20889;-86
2023/01/22 13:14:18;;;;;;;5.50;2.50;;;4.10;99.90;;;;;;5053036;28;20315;-86
2023/01/22 13:16:53;;;;;;;5.77;2.20;;;4.10;99.90;;;;;;5051740;28;20255;-85
2023/01/22 13:19:26;;;;;;;6.13;2.00;;;4.10;99.90;;;;;;5070528;28;20455;-86
2023/01/22 13:21:59;;;;;;;5.60;2.00;;;4.10;99.90;;;;;;5071438;28;20228;-85
2023/01/22 13:24:26;;;;;;;6.27;2.03;;;4.10;99.90;;;;;;5053574;28;20244;-85